createdAt,value
2019-02-25T00:04:20.042Z,32.50
2019-02-25T00:06:47.329Z,32.60
2019-02-25T00:09:14.415Z,32.80
2019-02-25T00:11:41.657Z,32.90
2019-02-25T00:16:36.141Z,32.80
2019-02-25T00:21:30.711Z,33.10
2019-02-25T00:23:58.175Z,33.20
2019-02-25T00:28:52.623Z,33.20
2019-02-25T00:31:20.241Z,33.30
2019-02-25T00:33:47.549Z,33.30
2019-02-25T00:36:14.912Z,33.40
2019-02-25T00:38:42.029Z,33.40
2019-02-25T00:43:36.300Z,33.40
2019-02-25T00:53:25.042Z,33.60
2019-02-25T00:55:52.260Z,33.60
2019-02-25T00:58:19.447Z,33.70
2019-02-25T01:03:13.870Z,34.00
2019-02-25T01:05:41.164Z,34.10
2019-02-25T01:08:08.453Z,34.10
2019-02-25T01:10:35.686Z,34.20
2019-02-25T01:13:03.093Z,34.30
2019-02-25T01:15:30.377Z,34.30
2019-02-25T01:17:57.627Z,34.40
2019-02-25T01:22:52.181Z,34.50
2019-02-25T01:25:19.466Z,34.70
2019-02-25T01:27:48.569Z,34.70
2019-02-25T01:32:42.939Z,34.90
2019-02-25T01:42:32.429Z,35.00
2019-02-25T01:44:59.682Z,35.10
2019-02-25T01:47:26.827Z,35.10
2019-02-25T01:49:54.018Z,35.10
2019-02-25T01:52:21.442Z,35.10
2019-02-25T01:54:48.774Z,35.10
2019-02-25T01:57:16.171Z,35.20
2019-02-25T01:59:44.058Z,35.20
2019-02-25T02:02:11.261Z,35.30
2019-02-25T02:07:05.670Z,35.30
2019-02-25T02:09:32.942Z,35.40
2019-02-25T02:12:00.133Z,35.40
2019-02-25T02:14:27.395Z,35.40
2019-02-25T02:16:54.737Z,35.40
2019-02-25T02:19:22.036Z,35.50
2019-02-25T02:24:16.628Z,35.50
2019-02-25T02:26:43.959Z,35.70
2019-02-25T02:29:11.282Z,35.70
2019-02-25T02:31:38.421Z,35.70
2019-02-25T02:36:54.509Z,35.80
2019-02-25T02:39:21.775Z,35.90
2019-02-25T02:42:11.836Z,35.80
2019-02-25T02:44:39.333Z,35.80
2019-02-25T02:47:41.655Z,35.90
2019-02-25T02:50:12.349Z,35.80
2019-02-25T02:52:39.558Z,36.40
2019-02-25T02:55:07.242Z,36.60
2019-02-25T02:57:34.439Z,36.00
2019-02-25T03:00:01.729Z,36.00
2019-02-25T03:02:28.998Z,36.70
2019-02-25T03:04:56.336Z,36.70
2019-02-25T03:07:23.740Z,36.80
2019-02-25T03:09:51.039Z,37.00
2019-02-25T03:12:18.327Z,36.90
2019-02-25T03:14:45.519Z,36.80
2019-02-25T03:17:12.809Z,38.00
2019-02-25T03:19:40.132Z,36.40
2019-02-25T03:22:07.454Z,37.30
2019-02-25T03:24:34.819Z,37.00
2019-02-25T03:27:02.020Z,37.10
2019-02-25T03:29:29.585Z,36.30
2019-02-25T03:31:56.742Z,36.50
2019-02-25T03:34:24.858Z,38.10
2019-02-25T03:36:52.044Z,36.90
2019-02-25T03:39:19.306Z,37.10
2019-02-25T03:41:46.549Z,36.20
2019-02-25T03:44:13.796Z,36.10
2019-02-25T03:46:40.989Z,36.10
2019-02-25T03:49:08.298Z,36.00
2019-02-25T03:51:35.432Z,36.60
2019-02-25T03:54:02.656Z,35.80
2019-02-25T03:56:29.857Z,36.40
2019-02-25T03:58:57.044Z,36.50
2019-02-25T04:01:24.298Z,35.90
2019-02-25T04:03:51.369Z,36.10
2019-02-25T04:06:18.871Z,36.60
2019-02-25T04:08:46.116Z,36.10
2019-02-25T04:11:13.386Z,36.20
2019-02-25T04:13:40.643Z,36.30
2019-02-25T04:16:07.886Z,36.30
2019-02-25T04:18:35.187Z,37.80
2019-02-25T04:21:02.542Z,36.40
2019-02-25T04:23:29.748Z,36.40
2019-02-25T04:28:24.257Z,36.40
2019-02-25T04:33:18.659Z,36.40
2019-02-25T04:35:45.931Z,37.90
2019-02-25T04:38:13.267Z,36.40
2019-02-25T04:40:40.627Z,36.50
2019-02-25T04:43:07.908Z,36.50
2019-02-25T04:45:35.125Z,36.60
2019-02-25T04:48:02.407Z,37.60
2019-02-25T04:50:29.499Z,37.50
2019-02-25T04:52:56.757Z,36.80
2019-02-25T04:57:51.455Z,36.70
2019-02-25T05:00:19.019Z,37.40
2019-02-25T05:02:46.341Z,36.90
2019-02-25T05:07:40.924Z,36.90
2019-02-25T05:10:09.550Z,37.60
2019-02-25T05:12:37.583Z,37.10
2019-02-25T05:15:04.995Z,37.20
2019-02-25T05:17:32.400Z,37.20
2019-02-25T05:19:59.637Z,37.20
2019-02-25T05:22:26.997Z,37.40
2019-02-25T05:24:54.332Z,37.40
2019-02-25T05:27:21.506Z,38.50
2019-02-25T05:29:48.790Z,37.50
2019-02-25T05:32:16.153Z,37.70
2019-02-25T05:34:43.599Z,37.60
2019-02-25T05:38:37.788Z,37.70
2019-02-25T05:43:32.077Z,37.70
2019-02-25T05:46:00.439Z,38.30
2019-02-25T05:48:28.735Z,37.70
2019-02-25T05:50:56.080Z,38.00
2019-02-25T05:53:23.487Z,37.90
2019-02-25T05:55:51.047Z,38.10
2019-02-25T05:58:18.179Z,38.10
2019-02-25T06:00:45.508Z,38.10
2019-02-25T06:03:12.811Z,38.20
2019-02-25T06:05:40.004Z,38.10
2019-02-25T06:08:07.977Z,38.40
2019-02-25T06:10:35.840Z,38.40
2019-02-25T06:13:03.320Z,38.50
2019-02-25T06:17:55.883Z,38.60
2019-02-25T06:20:23.157Z,38.70
2019-02-25T06:22:50.291Z,38.70
2019-02-25T06:25:17.478Z,40.10
2019-02-25T06:27:44.699Z,40.90
2019-02-25T06:30:13.982Z,38.90
2019-02-25T06:32:41.299Z,38.90
2019-02-25T06:35:09.085Z,39.00
2019-02-25T06:37:36.714Z,39.70
2019-02-25T06:40:04.399Z,39.10
2019-02-25T06:42:31.629Z,39.00
2019-02-25T06:45:01.653Z,39.00
2019-02-25T06:47:29.026Z,38.80
2019-02-25T06:49:56.569Z,38.90
2019-02-25T06:52:24.019Z,38.80
2019-02-25T06:54:51.573Z,39.40
2019-02-25T06:57:44.595Z,38.80
2019-02-25T07:00:17.053Z,39.00
2019-02-25T07:03:04.014Z,38.80
2019-02-25T07:06:02.687Z,38.70
2019-02-25T07:09:29.131Z,39.00
2019-02-25T07:15:19.761Z,38.90
2019-02-25T07:18:06.760Z,39.00
2019-02-25T07:20:58.726Z,39.00
2019-02-25T07:30:17.963Z,39.10
2019-02-25T07:33:08.037Z,39.30
2019-02-25T07:35:50.668Z,39.80
2019-02-25T07:38:39.444Z,39.40
2019-02-25T07:41:24.941Z,39.30
2019-02-25T07:44:11.931Z,40.70
2019-02-25T07:46:49.601Z,40.30
2019-02-25T07:49:36.529Z,39.60
2019-02-25T07:52:41.672Z,39.60
2019-02-25T07:55:34.685Z,39.70
2019-02-25T07:58:20.072Z,39.70
2019-02-25T08:00:55.682Z,39.90
2019-02-25T08:03:49.092Z,40.00
2019-02-25T08:06:38.840Z,42.10
2019-02-25T08:09:23.114Z,42.10
2019-02-25T08:12:13.048Z,38.70
2019-02-25T08:14:53.717Z,40.00
2019-02-25T08:28:49.453Z,44.00
2019-02-25T08:31:39.458Z,43.80
2019-02-25T08:34:38.540Z,42.90
2019-02-25T08:37:36.468Z,42.50
2019-02-25T08:40:46.846Z,42.30
2019-02-25T08:43:43.632Z,41.90
2019-02-25T08:46:33.210Z,42.60
2019-02-25T08:49:13.058Z,41.30
2019-02-25T08:51:40.422Z,41.00
2019-02-25T08:54:07.919Z,41.80
2019-02-25T08:56:35.720Z,40.30
2019-02-25T08:59:22.558Z,40.50
2019-02-25T09:01:49.961Z,39.50
2019-02-25T09:04:19.558Z,39.10
2019-02-25T09:06:48.999Z,38.50
2019-02-25T09:09:16.660Z,38.00
2019-02-25T09:11:44.099Z,37.50
2019-02-25T09:14:11.537Z,37.20
2019-02-25T09:16:38.964Z,36.80
2019-02-25T09:19:17.050Z,36.70
2019-02-25T09:21:44.438Z,36.10
2019-02-25T09:24:11.943Z,35.90
2019-02-25T09:26:39.560Z,35.80
2019-02-25T09:29:06.911Z,35.70
2019-02-25T09:31:34.433Z,35.70
2019-02-25T09:34:01.822Z,35.50
2019-02-25T09:36:31.041Z,35.70
2019-02-25T09:38:58.515Z,35.20
2019-02-25T09:41:30.011Z,34.90
2019-02-25T09:43:55.107Z,34.40
2019-02-25T09:46:22.507Z,34.00
2019-02-25T09:48:50.048Z,33.50
2019-02-25T09:51:17.535Z,33.00
2019-02-25T09:53:44.880Z,32.50
2019-02-25T09:56:12.357Z,32.30
2019-02-25T09:58:40.920Z,32.10
2019-02-25T10:01:08.533Z,31.90
2019-02-25T10:03:35.979Z,31.50
2019-02-25T10:06:03.499Z,31.10
2019-02-25T10:08:31.057Z,30.50
2019-02-25T10:10:58.549Z,30.30
2019-02-25T10:13:26.028Z,29.90
2019-02-25T10:15:53.582Z,30.00
2019-02-25T10:18:21.129Z,29.70
2019-02-25T10:20:51.428Z,29.80
2019-02-25T10:23:18.933Z,29.40
2019-02-25T10:25:46.738Z,29.40
2019-02-25T10:28:14.127Z,29.20
2019-02-25T10:30:42.026Z,29.10
2019-02-25T10:33:09.594Z,29.30
2019-02-25T10:35:37.746Z,29.40
2019-02-25T10:38:05.264Z,29.10
2019-02-25T10:40:32.677Z,29.20
2019-02-25T10:43:00.091Z,29.10
2019-02-25T10:45:27.354Z,28.90
2019-02-25T10:47:58.468Z,28.80
2019-02-25T10:50:23.863Z,28.50
2019-02-25T10:52:51.269Z,28.20
2019-02-25T10:55:22.659Z,27.90
2019-02-25T10:57:50.110Z,28.20
2019-02-25T11:00:17.499Z,27.20
2019-02-25T11:02:46.881Z,27.00
2019-02-25T11:05:14.119Z,26.70
2019-02-25T11:07:42.033Z,26.30
2019-02-25T11:10:20.385Z,26.10
2019-02-25T11:12:48.327Z,25.80
2019-02-25T11:15:15.999Z,25.50
2019-02-25T11:17:43.424Z,25.40
2019-02-25T11:20:10.796Z,25.00
2019-02-25T11:22:39.804Z,24.90
2019-02-25T11:25:07.541Z,24.60
2019-02-25T11:27:35.892Z,24.40
2019-02-25T11:30:04.858Z,24.20
2019-02-25T11:32:32.244Z,24.30
2019-02-25T11:35:01.310Z,24.30
2019-02-25T11:37:29.008Z,23.60
2019-02-25T11:39:59.290Z,23.90
2019-02-25T11:42:26.404Z,23.60
2019-02-25T11:44:54.277Z,23.60
2019-02-25T11:47:28.894Z,23.50
2019-02-25T11:49:56.193Z,23.50
2019-02-25T11:52:23.581Z,23.10
2019-02-25T11:54:51.042Z,23.00
2019-02-25T11:57:18.355Z,22.90
2019-02-25T11:59:45.774Z,23.10
2019-02-25T12:02:13.239Z,22.90
2019-02-25T12:04:40.617Z,22.80
2019-02-25T12:07:07.992Z,22.60
2019-02-25T12:09:35.277Z,23.20
2019-02-25T12:12:02.885Z,22.60
2019-02-25T12:14:30.271Z,22.50
2019-02-25T12:16:57.606Z,22.40
2019-02-25T12:19:24.912Z,22.40
2019-02-25T12:21:52.231Z,22.30
2019-02-25T12:24:19.635Z,22.20
2019-02-25T12:26:46.971Z,22.20
2019-02-25T12:29:14.331Z,22.10
2019-02-25T12:31:41.762Z,22.00
2019-02-25T12:34:09.227Z,21.30
2019-02-25T12:36:36.547Z,21.80
2019-02-25T12:39:06.352Z,21.90
2019-02-25T12:41:33.719Z,21.40
2019-02-25T12:44:01.174Z,22.00
2019-02-25T12:46:28.659Z,21.80
2019-02-25T12:48:56.003Z,21.90
2019-02-25T12:51:23.489Z,21.90
2019-02-25T12:53:50.909Z,22.10
2019-02-25T12:56:18.317Z,22.10
2019-02-25T12:58:46.566Z,22.10
2019-02-25T13:01:13.868Z,22.10
2019-02-25T13:03:41.241Z,22.20
2019-02-25T13:06:09.359Z,22.30
2019-02-25T13:08:36.671Z,22.40
2019-02-25T13:11:04.024Z,22.50
2019-02-25T13:13:31.360Z,22.60
2019-02-25T13:15:58.836Z,22.70
2019-02-25T13:18:26.139Z,22.80
2019-02-25T13:20:53.647Z,23.00
2019-02-25T13:23:20.931Z,23.00
2019-02-25T13:25:48.370Z,23.00
2019-02-25T13:28:15.829Z,23.00
2019-02-25T13:30:43.237Z,22.90
2019-02-25T13:33:10.715Z,23.00
2019-02-25T13:35:38.150Z,23.00
2019-02-25T13:38:05.573Z,23.00
2019-02-25T13:40:33.153Z,22.90
2019-02-25T13:43:00.634Z,22.90
2019-02-25T13:45:28.019Z,23.00
2019-02-25T13:47:55.448Z,23.00
2019-02-25T13:50:22.878Z,23.10
2019-02-25T13:52:50.285Z,23.10
2019-02-25T13:55:17.779Z,23.00
2019-02-25T13:57:45.169Z,23.00
2019-02-25T14:00:17.125Z,23.00
2019-02-25T14:02:44.731Z,23.10
2019-02-25T14:05:12.173Z,23.00
2019-02-25T14:07:40.310Z,23.00
2019-02-25T14:10:08.319Z,23.00
2019-02-25T14:12:35.743Z,23.00
2019-02-25T14:15:03.733Z,23.00
2019-02-25T14:17:31.171Z,23.10
2019-02-25T14:19:58.643Z,23.20
2019-02-25T14:22:26.053Z,23.30
2019-02-25T14:24:53.490Z,23.30
2019-02-25T14:27:20.887Z,23.40
2019-02-25T14:29:48.894Z,23.50
2019-02-25T14:32:16.518Z,23.50
2019-02-25T14:34:44.373Z,23.60
2019-02-25T14:37:14.357Z,23.60
2019-02-25T14:39:43.350Z,23.60
2019-02-25T14:42:12.177Z,23.60
2019-02-25T14:44:41.267Z,23.80
2019-02-25T14:47:19.559Z,23.80
2019-02-25T14:49:42.789Z,23.50
2019-02-25T14:52:10.089Z,23.90
2019-02-25T14:54:37.472Z,24.10
2019-02-25T14:57:04.989Z,24.30
2019-02-25T14:59:33.251Z,24.50
2019-02-25T15:02:02.167Z,24.70
2019-02-25T15:04:30.113Z,24.90
2019-02-25T15:06:57.573Z,25.10
2019-02-25T15:09:25.051Z,25.20
2019-02-25T15:11:55.559Z,25.40
2019-02-25T15:14:21.865Z,25.60
2019-02-25T15:16:49.348Z,25.80
2019-02-25T15:19:16.835Z,26.10
2019-02-25T15:21:45.432Z,26.50
2019-02-25T15:24:14.739Z,26.60
2019-02-25T15:26:43.210Z,26.70
2019-02-25T15:29:10.862Z,26.90
2019-02-25T15:31:46.253Z,27.10
2019-02-25T15:34:15.071Z,27.30
2019-02-25T15:36:44.968Z,27.40
2019-02-25T15:39:14.200Z,27.60
2019-02-25T15:42:07.469Z,27.80
2019-02-25T15:44:35.135Z,28.40
2019-02-25T15:47:06.657Z,28.40
2019-02-25T15:49:35.551Z,28.40
2019-02-25T15:52:03.326Z,28.60
2019-02-25T15:54:32.707Z,28.70
2019-02-25T15:57:05.928Z,28.60
2019-02-25T15:59:33.669Z,29.20
2019-02-25T16:02:03.530Z,29.70
2019-02-25T16:04:33.968Z,29.50
2019-02-25T16:07:06.185Z,29.80
2019-02-25T16:09:34.023Z,29.30
2019-02-25T16:12:03.754Z,28.70
2019-02-25T16:14:32.763Z,29.90
2019-02-25T16:17:00.250Z,30.70
2019-02-25T16:19:38.803Z,30.50
2019-02-25T16:22:02.730Z,30.30
2019-02-25T16:24:32.459Z,30.00
2019-02-25T16:27:00.543Z,31.00
2019-02-25T16:29:29.327Z,29.60
2019-02-25T16:32:00.105Z,30.90
2019-02-25T16:34:32.011Z,31.10
2019-02-25T16:37:00.902Z,31.00
2019-02-25T16:39:29.640Z,31.20
2019-02-25T16:41:57.713Z,30.90
2019-02-25T16:44:25.272Z,31.70
2019-02-25T16:46:54.097Z,31.30
2019-02-25T16:49:21.794Z,31.90
2019-02-25T16:51:50.994Z,31.60
2019-02-25T16:54:21.169Z,31.80
2019-02-25T16:56:48.516Z,31.50
2019-02-25T16:59:18.534Z,32.50
2019-02-25T17:01:46.248Z,31.70
2019-02-25T17:04:16.828Z,32.80
2019-02-25T17:06:43.933Z,32.80
2019-02-25T17:09:15.684Z,32.90
2019-02-25T17:11:43.993Z,32.30
2019-02-25T17:14:14.966Z,32.60
2019-02-25T17:16:44.106Z,32.50
2019-02-25T17:19:11.675Z,33.10
2019-02-25T17:21:39.222Z,33.20
2019-02-25T17:24:07.323Z,33.30
2019-02-25T17:26:36.179Z,33.30
2019-02-25T17:29:09.797Z,34.00
2019-02-25T17:31:38.752Z,34.20
2019-02-25T17:34:10.025Z,33.40
2019-02-25T17:36:38.500Z,34.10
2019-02-25T17:39:08.734Z,34.50
2019-02-25T17:41:37.855Z,34.10
2019-02-25T17:44:06.707Z,34.20
2019-02-25T17:46:37.006Z,34.70
2019-02-25T17:49:06.033Z,34.50
2019-02-25T17:51:38.723Z,34.90
2019-02-25T17:54:07.601Z,35.00
2019-02-25T17:56:37.172Z,34.40
2019-02-25T18:01:54.505Z,34.70
2019-02-25T18:04:24.398Z,34.90
2019-02-25T18:06:51.896Z,34.80
2019-02-25T18:09:20.481Z,35.00
2019-02-25T18:11:49.077Z,34.80
2019-02-25T18:14:17.527Z,34.80
2019-02-25T18:16:48.219Z,35.20
2019-02-25T18:19:15.778Z,35.20
2019-02-25T18:21:44.675Z,35.20
2019-02-25T18:24:12.971Z,35.40
2019-02-25T18:29:09.404Z,35.70
2019-02-25T18:31:40.249Z,35.60
2019-02-25T18:34:10.791Z,35.90
2019-02-25T18:36:38.977Z,35.60
2019-02-25T18:42:02.399Z,36.10
2019-02-25T18:47:00.465Z,36.20
2019-02-25T18:49:30.211Z,36.10
2019-02-25T18:52:09.339Z,37.00
2019-02-25T18:54:38.927Z,36.50
2019-02-25T18:59:56.894Z,36.50
2019-02-25T19:02:24.952Z,36.70
2019-02-25T19:04:52.796Z,36.70
2019-02-25T19:07:20.782Z,36.70
2019-02-25T19:09:49.374Z,37.00
2019-02-25T19:12:18.283Z,37.10
2019-02-25T19:14:45.748Z,39.10
2019-02-25T19:17:13.391Z,37.70
2019-02-25T19:19:46.985Z,37.80
2019-02-25T19:22:17.879Z,38.70
2019-02-25T19:24:47.205Z,38.30
2019-02-25T19:27:14.877Z,37.30
2019-02-25T19:29:45.107Z,37.50
2019-02-25T19:32:11.835Z,38.20
2019-02-25T19:34:40.254Z,38.10
2019-02-25T19:37:09.710Z,38.20
2019-02-25T19:39:43.910Z,38.20
2019-02-25T19:42:15.371Z,38.30
2019-02-25T19:44:44.272Z,38.40
2019-02-25T19:47:14.052Z,39.30
2019-02-25T19:52:34.754Z,38.60
2019-02-25T19:55:05.592Z,38.60
2019-02-25T19:57:37.911Z,38.80
2019-02-25T20:00:10.479Z,38.80
2019-02-25T20:02:38.174Z,39.20
2019-02-25T20:05:11.918Z,40.20
2019-02-25T20:07:42.447Z,38.80
2019-02-25T20:13:29.647Z,37.90
2019-02-25T20:15:57.484Z,39.10
2019-02-25T20:21:20.070Z,39.80
2019-02-25T20:23:51.819Z,40.00
2019-02-25T20:26:41.106Z,39.80
2019-02-25T20:38:34.827Z,40.00
2019-02-25T20:41:03.105Z,39.40
2019-02-25T20:43:37.171Z,39.20
2019-02-25T20:46:29.150Z,40.00
2019-02-25T20:48:57.750Z,40.40
2019-02-25T20:51:50.094Z,39.50
2019-02-25T20:54:43.230Z,39.80
2019-02-25T20:57:12.545Z,39.50
2019-02-25T20:59:55.330Z,41.50
2019-02-25T21:02:25.725Z,41.30
2019-02-25T21:05:00.666Z,39.80
2019-02-25T21:07:32.282Z,40.70
2019-02-25T21:10:09.776Z,41.90
2019-02-25T21:18:05.260Z,40.20
2019-02-25T21:23:38.530Z,41.00
2019-02-25T21:26:29.281Z,40.20
2019-02-25T21:32:47.517Z,40.20
2019-02-25T21:35:16.321Z,41.40
2019-02-25T21:37:48.287Z,40.60
2019-02-25T21:43:51.630Z,40.90
2019-02-25T21:46:31.604Z,40.50
2019-02-25T21:49:06.719Z,40.30
2019-02-25T21:54:48.713Z,40.70
2019-02-25T21:57:37.632Z,40.30
2019-02-25T22:06:03.219Z,42.60
2019-02-25T22:09:36.521Z,42.00
2019-02-25T22:15:10.836Z,43.10
2019-02-25T22:18:06.126Z,41.60
2019-02-25T22:23:28.837Z,41.90
2019-02-25T22:26:28.979Z,41.60
2019-02-25T22:28:57.938Z,41.50
2019-02-25T22:31:28.328Z,41.50
2019-02-25T22:34:15.966Z,42.10
2019-02-25T22:36:48.526Z,41.80
2019-02-25T22:39:16.724Z,42.90
2019-02-25T22:42:00.308Z,42.10
2019-02-25T22:49:49.446Z,41.90
2019-02-25T22:52:21.887Z,42.60
2019-02-25T22:55:36.816Z,43.00
2019-02-25T22:59:02.861Z,42.40
2019-02-25T23:01:36.868Z,42.20
2019-02-25T23:04:14.985Z,42.30
2019-02-25T23:06:46.291Z,42.30
2019-02-25T23:09:19.544Z,42.90
2019-02-25T23:12:50.124Z,42.50
2019-02-25T23:15:23.281Z,43.10
2019-02-25T23:17:50.997Z,42.40
2019-02-25T23:20:31.668Z,42.60
2019-02-25T23:23:04.832Z,42.80
2019-02-25T23:25:31.442Z,42.70
2019-02-25T23:28:00.645Z,42.90
2019-02-25T23:30:31.366Z,43.10
2019-02-25T23:32:58.794Z,43.10
2019-02-25T23:35:26.543Z,43.10
2019-02-25T23:40:49.357Z,43.00
2019-02-25T23:43:38.081Z,43.00
2019-02-25T23:46:06.563Z,42.80
2019-02-25T23:48:54.571Z,43.10
2019-02-25T23:51:23.485Z,43.00
2019-02-25T23:53:53.195Z,43.30
2019-02-25T23:56:22.709Z,43.10
2019-02-25T23:58:57.088Z,43.40
